Dallas City, IL (62330)

7:08 PM CDT on October 22, 2014 (GMT -0500)
Chem Gro Inc. | Change Station
CLOSE
Current Station
Personal Weather Station
Location: Adrian, IL
Elevation: 705 ft
Nearby Weather Stations

Elev 705 ft 40.52 °N, 91.17 °W | Updated 10 seconds ago

Clear
Clear
53.8 °F
Feels Like 53.8 °F
N
1.8
Wind Variable Wind from SE
Gusts 1.8 mph

Today
High -- | Low -- °F
--% Chance of Precip.
Yesterday
High -- | Low -- °F
Precip. -- in
7:23 AM 6:14 PM
Waning Crescent, 1% visible
Pressure 30.21 in
Visibility 10.0 miles
Clouds Clear
Dew Point 40 °F
Humidity 59%
Rainfall 0.00 in
Snow Depth Not available.
UV 0 out of 12
Pollen 1.20 out of 12
Air Quality Not available.
Flu Activity No Activity
METAR KFSW 222355Z AUTO 12003KT 10SM CLR 12/06 A3021 RMK AO2

More Conditions Fewer Conditions

Pressure 30.21 in
Visibility 10.0 miles
Clouds Clear
Dew Point 40 °F
Humidity 59%
Rainfall 0.00 in
Snow Depth Not available.
UV 0 out of 12
Pollen 1.20 out of 12
Air Quality Not available.
Flu Activity No Activity
METAR KFSW 222355Z AUTO 12003KT 10SM CLR 12/06 A3021 RMK AO2

More Conditions Fewer Conditions

10-Day Weather Forecast

Almanac

Astronomy

Oct. 22, 2014 Rise Set
Actual Time 7:23 AM CDT 6:14 PM CDT
Civil Twilight 6:55 AM CDT 6:41 PM CDT
Nautical Twilight 6:23 AM CDT 7:13 PM CDT
Astronomical Twilight 5:51 AM CDT 7:45 PM CDT
Moon 6:04 AM CDT (10/22) 5:41 PM CDT (10/22)
Length of Visible Light 11h 46m
Length of Day
10h 50m
Tomorrow will be 2m 31s shorter.
Waning Crescent, 1% of the Moon is Illuminated
Today
Waning Crescent
Oct 23
New
Oct 30
First Quarter
Nov 6
Full
Nov 14
Last Quarter

Today's Extremes

State Highs State Lows

Community

WunderPhotos

Upload Photos

1,764,082 photos uploaded!

WunderBlogs® & News

Nearby

Snow Depth

Station Depth Elevation
No new snow has been reported.

Earthquake Activity

City Distance Mag. Time & Date
No recent earthquake activity has been reported nearby.
Minimum magnitude displayed is 2.5.

Coastal Water Temperatures

Place Temperature
No Stations Reporting

Nearby Weather Stations